createdAt,value
2018-03-17T00:01:35.875Z,-1.41
2018-03-17T00:04:15.105Z,-1.47
2018-03-17T00:06:54.783Z,-1.53
2018-03-17T00:09:34.112Z,-1.38
2018-03-17T00:12:17.444Z,-1.31
2018-03-17T00:14:57.962Z,-1.32
2018-03-17T00:17:38.189Z,-1.48
2018-03-17T00:20:17.633Z,-1.33
2018-03-17T00:22:57.072Z,-1.44
2018-03-17T00:25:36.876Z,-1.55
2018-03-17T00:28:17.075Z,-1.58
2018-03-17T00:30:56.267Z,-1.59
2018-03-17T00:33:35.691Z,-1.54
2018-03-17T00:36:14.788Z,-1.57
2018-03-17T00:38:53.789Z,-1.64
2018-03-17T00:41:33.208Z,-1.72
2018-03-17T00:44:12.568Z,-1.64
2018-03-17T00:46:54.455Z,-1.60
2018-03-17T00:49:33.894Z,-1.71
2018-03-17T00:52:13.532Z,-1.69
2018-03-17T00:54:52.577Z,-1.65
2018-03-17T00:57:33.334Z,-1.61
2018-03-17T01:00:12.270Z,-1.59
2018-03-17T01:02:51.261Z,-1.64
2018-03-17T01:05:29.940Z,-1.73
2018-03-17T01:08:08.774Z,-1.81
2018-03-17T01:10:48.549Z,-1.75
2018-03-17T01:13:28.562Z,-1.69
2018-03-17T01:16:07.673Z,-1.69
2018-03-17T01:18:47.572Z,-1.65
2018-03-17T01:21:26.214Z,-1.78
2018-03-17T01:24:06.675Z,-1.75
2018-03-17T01:26:46.411Z,-1.72
2018-03-17T01:29:25.386Z,-1.83
2018-03-17T01:32:07.061Z,-1.73
2018-03-17T01:34:46.416Z,-1.82
2018-03-17T01:37:25.697Z,-1.64
2018-03-17T01:40:08.924Z,-1.67
2018-03-17T01:42:50.341Z,-1.67
2018-03-17T01:45:29.039Z,-1.73
2018-03-17T01:48:07.923Z,-1.67
2018-03-17T01:50:47.512Z,-1.79
2018-03-17T01:53:28.505Z,-1.71
2018-03-17T01:56:08.250Z,-1.88
2018-03-17T01:58:49.920Z,-1.91
2018-03-17T02:01:30.160Z,-1.81
2018-03-17T02:04:09.727Z,-1.98
2018-03-17T02:06:51.029Z,-1.89
2018-03-17T02:09:32.146Z,-2.21
2018-03-17T02:12:11.673Z,-2.15
2018-03-17T02:14:50.813Z,-2.11
2018-03-17T02:17:29.754Z,-2.18
2018-03-17T02:20:10.873Z,-2.15
2018-03-17T02:22:53.977Z,-2.23
2018-03-17T02:25:33.327Z,-2.27
2018-03-17T02:28:13.452Z,-2.07
2018-03-17T02:30:54.473Z,-2.23
2018-03-17T02:33:33.224Z,-2.17
2018-03-17T02:36:12.754Z,-2.24
2018-03-17T02:38:54.106Z,-2.09
2018-03-17T02:41:33.922Z,-2.11
2018-03-17T02:44:21.201Z,-2.10
2018-03-17T02:47:01.203Z,-2.14
2018-03-17T02:49:40.076Z,-2.22
2018-03-17T02:52:18.951Z,-2.21
2018-03-17T02:54:57.942Z,-2.20
2018-03-17T02:57:37.200Z,-2.30
2018-03-17T03:00:16.803Z,-2.55
2018-03-17T03:02:57.421Z,-2.48
2018-03-17T03:05:40.908Z,-2.52
2018-03-17T03:08:21.262Z,-2.65
2018-03-17T03:11:01.793Z,-2.49
2018-03-17T03:13:41.106Z,-2.58
2018-03-17T03:16:20.811Z,-2.61
2018-03-17T03:19:01.804Z,-2.80
2018-03-17T03:21:40.929Z,-2.69
2018-03-17T03:24:19.605Z,-2.85
2018-03-17T03:26:59.172Z,-2.80
2018-03-17T03:29:38.209Z,-2.92
2018-03-17T03:32:17.374Z,-2.89
2018-03-17T03:34:56.585Z,-3.01
2018-03-17T03:37:40.471Z,-3.01
2018-03-17T03:40:22.457Z,-2.99
2018-03-17T03:43:02.831Z,-2.97
2018-03-17T03:45:43.432Z,-2.86
2018-03-17T03:48:22.213Z,-2.93
2018-03-17T03:51:01.180Z,-3.11
2018-03-17T03:53:42.680Z,-3.05
2018-03-17T03:56:27.095Z,-3.08
2018-03-17T03:59:07.461Z,-3.16
2018-03-17T04:01:46.876Z,-3.12
2018-03-17T04:04:25.513Z,-3.28
2018-03-17T04:07:04.776Z,-3.29
2018-03-17T04:09:44.221Z,-3.36
2018-03-17T04:12:23.627Z,-3.44
2018-03-17T04:15:03.617Z,-3.46
2018-03-17T04:17:42.792Z,-3.59
2018-03-17T04:20:23.645Z,-3.55
2018-03-17T04:23:03.864Z,-3.59
2018-03-17T04:25:47.316Z,-3.40
2018-03-17T04:28:26.165Z,-3.48
2018-03-17T04:31:06.016Z,-3.52
2018-03-17T04:33:45.111Z,-3.67
2018-03-17T04:36:24.818Z,-3.70
2018-03-17T04:39:09.368Z,-3.98
2018-03-17T04:41:48.913Z,-3.86
2018-03-17T04:44:28.879Z,-3.82
2018-03-17T04:47:12.265Z,-3.76
2018-03-17T04:49:51.164Z,-3.94
2018-03-17T04:52:30.590Z,-3.96
2018-03-17T04:55:10.680Z,-4.14
2018-03-17T04:57:50.483Z,-3.89
2018-03-17T05:00:30.144Z,-3.70
2018-03-17T05:03:09.946Z,-3.92
2018-03-17T05:05:50.347Z,-3.85
2018-03-17T05:08:30.552Z,-3.97
2018-03-17T05:11:09.470Z,-3.87
2018-03-17T05:13:50.083Z,-3.76
2018-03-17T05:16:33.560Z,-4.10
2018-03-17T05:19:13.679Z,-4.02
2018-03-17T05:21:53.637Z,-4.05
2018-03-17T05:24:33.505Z,-3.99
2018-03-17T05:27:12.550Z,-3.87
2018-03-17T05:29:52.194Z,-3.97
2018-03-17T05:32:31.307Z,-4.06
2018-03-17T05:35:14.637Z,-4.06
2018-03-17T05:37:55.190Z,-3.91
2018-03-17T05:40:34.462Z,-3.88
2018-03-17T05:43:14.106Z,-3.99
2018-03-17T05:45:53.682Z,-3.97
2018-03-17T05:48:33.138Z,-3.99
2018-03-17T05:51:12.138Z,-4.25
2018-03-17T05:53:51.221Z,-4.33
2018-03-17T05:56:30.086Z,-4.23
2018-03-17T05:59:08.763Z,-4.34
2018-03-17T06:01:47.570Z,-4.05
2018-03-17T06:04:26.460Z,-4.18
2018-03-17T06:07:05.909Z,-4.30
2018-03-17T06:09:46.268Z,-4.36
2018-03-17T06:12:25.087Z,-4.06
2018-03-17T06:15:06.780Z,-4.30
2018-03-17T06:17:46.818Z,-4.42
2018-03-17T06:20:25.770Z,-4.25
2018-03-17T06:23:07.357Z,-4.19
2018-03-17T06:25:46.504Z,-4.10
2018-03-17T06:28:25.318Z,-4.26
2018-03-17T06:31:06.515Z,-4.34
2018-03-17T06:33:46.648Z,-4.22
2018-03-17T06:36:25.173Z,-4.25
2018-03-17T06:39:05.266Z,-4.15
2018-03-17T06:41:46.102Z,-4.20
2018-03-17T06:44:24.719Z,-4.30
2018-03-17T06:47:03.374Z,-4.39
2018-03-17T06:49:42.738Z,-4.29
2018-03-17T06:52:22.205Z,-4.21
2018-03-17T06:55:02.574Z,-4.17
2018-03-17T06:57:45.245Z,-4.22
2018-03-17T07:00:25.399Z,-4.38
2018-03-17T07:03:04.732Z,-4.54
2018-03-17T07:05:38.154Z,-4.36
2018-03-17T07:08:11.750Z,-4.43
2018-03-17T07:10:45.287Z,-4.22
2018-03-17T07:13:18.736Z,-4.27
2018-03-17T07:15:52.936Z,-4.31
2018-03-17T07:18:27.475Z,-4.21
2018-03-17T07:21:00.740Z,-4.31
2018-03-17T07:23:33.847Z,-4.44
2018-03-17T07:26:07.825Z,-4.45
2018-03-17T07:28:41.813Z,-4.28
2018-03-17T07:33:53.518Z,-4.16
2018-03-17T07:36:29.495Z,-4.23
2018-03-17T07:39:04.228Z,-4.43
2018-03-17T07:41:37.937Z,-4.29
2018-03-17T07:44:11.680Z,-4.30
2018-03-17T07:46:50.472Z,-4.18
2018-03-17T07:49:24.432Z,-4.21
2018-03-17T07:51:58.624Z,-4.25
2018-03-17T07:54:31.783Z,-4.15
2018-03-17T07:57:15.593Z,-4.04
2018-03-17T07:59:50.475Z,-4.20
2018-03-17T08:02:26.021Z,-4.24
2018-03-17T08:05:03.750Z,-4.12
2018-03-17T08:07:39.533Z,-4.03
2018-03-17T08:10:19.768Z,-4.20
2018-03-17T08:13:07.240Z,-4.21
2018-03-17T08:15:48.927Z,-4.30
2018-03-17T08:18:24.233Z,-4.33
2018-03-17T08:20:57.562Z,-4.44
2018-03-17T08:23:33.673Z,-4.46
2018-03-17T08:26:08.795Z,-3.84
2018-03-17T08:28:51.328Z,-3.89
2018-03-17T08:31:29.737Z,-3.97
2018-03-17T08:34:05.050Z,-3.85
2018-03-17T08:36:38.985Z,-4.29
2018-03-17T08:39:16.120Z,-3.92
2018-03-17T08:41:58.090Z,-3.90
2018-03-17T08:44:33.030Z,-3.87
2018-03-17T08:47:06.157Z,-3.89
2018-03-17T08:49:42.471Z,-4.10
2018-03-17T08:52:16.887Z,-3.79
2018-03-17T08:54:50.644Z,-3.88
2018-03-17T08:57:23.990Z,-4.01
2018-03-17T09:00:11.846Z,-3.95
2018-03-17T09:03:05.714Z,-3.95
2018-03-17T09:12:19.303Z,-3.83
2018-03-17T09:15:02.761Z,-4.06
2018-03-17T09:17:40.365Z,-3.76
2018-03-17T09:20:14.733Z,-3.39
2018-03-17T09:22:48.267Z,-3.33
2018-03-17T09:25:23.604Z,-4.03
2018-03-17T09:28:01.271Z,-3.75
2018-03-17T09:30:35.686Z,-3.78
2018-03-17T09:33:14.889Z,-3.92
2018-03-17T09:35:48.708Z,-3.90
2018-03-17T09:38:28.687Z,-3.67
2018-03-17T09:41:06.417Z,-3.89
2018-03-17T09:43:40.981Z,-3.77
2018-03-17T09:46:14.905Z,-3.79
2018-03-17T09:48:51.382Z,-3.81
2018-03-17T09:51:25.767Z,-3.75
2018-03-17T09:53:59.935Z,-3.52
2018-03-17T09:56:34.110Z,-3.31
2018-03-17T09:59:16.820Z,-3.15
2018-03-17T10:01:50.973Z,-3.63
2018-03-17T10:04:41.769Z,-3.79
2018-03-17T10:07:18.466Z,-3.68
2018-03-17T10:09:52.055Z,-3.67
2018-03-17T10:12:28.586Z,-3.61
2018-03-17T10:17:48.127Z,-3.46
2018-03-17T10:20:23.455Z,-3.79
2018-03-17T10:23:15.346Z,-3.25
2018-03-17T10:25:50.747Z,-3.72
2018-03-17T10:28:29.437Z,-3.47
2018-03-17T10:31:03.185Z,-3.22
2018-03-17T10:33:43.465Z,-2.90
2018-03-17T10:36:18.143Z,-2.87
2018-03-17T10:38:52.126Z,-2.66
2018-03-17T10:41:39.911Z,-3.12
2018-03-17T10:44:18.117Z,-3.57
2018-03-17T10:46:53.168Z,-3.41
2018-03-17T10:49:31.506Z,-2.91
2018-03-17T10:52:05.726Z,-3.11
2018-03-17T10:54:42.419Z,-3.37
2018-03-17T10:57:19.160Z,-2.86
2018-03-17T10:59:54.096Z,-3.26
2018-03-17T11:02:32.882Z,-3.54
2018-03-17T11:05:11.079Z,-2.95
2018-03-17T11:07:47.556Z,-3.38
2018-03-17T11:10:22.792Z,-3.05
2018-03-17T11:12:58.984Z,-2.88
2018-03-17T11:15:36.960Z,-3.04
2018-03-17T11:18:11.697Z,-3.07
2018-03-17T11:20:45.659Z,-3.13
2018-03-17T11:23:21.852Z,-3.06
2018-03-17T11:25:57.620Z,-3.31
2018-03-17T11:28:34.234Z,-3.36
2018-03-17T11:31:10.815Z,-3.22
2018-03-17T11:33:46.961Z,-3.56
2018-03-17T11:36:21.535Z,-3.25
2018-03-17T11:38:54.825Z,-3.28
2018-03-17T11:41:28.602Z,-3.54
2018-03-17T11:44:01.594Z,-3.44
2018-03-17T11:46:36.862Z,-3.14
2018-03-17T11:49:10.743Z,-3.22
2018-03-17T11:51:44.070Z,-3.27
2018-03-17T11:54:19.672Z,-3.52
2018-03-17T11:56:53.687Z,-3.21
2018-03-17T11:59:28.785Z,-2.95
2018-03-17T12:02:02.046Z,-2.70
2018-03-17T12:04:35.063Z,-3.35
2018-03-17T12:10:00.304Z,-3.29
2018-03-17T12:12:37.069Z,-3.10
2018-03-17T12:15:14.434Z,-2.72
2018-03-17T12:17:47.937Z,-3.29
2018-03-17T12:20:24.816Z,-3.47
2018-03-17T12:23:00.158Z,-3.11
2018-03-17T12:25:34.921Z,-3.46
2018-03-17T12:28:10.559Z,-3.67
2018-03-17T12:30:46.703Z,-3.52
2018-03-17T12:33:26.455Z,-3.42
2018-03-17T12:36:00.752Z,-3.51
2018-03-17T12:41:44.138Z,-3.37
2018-03-17T12:44:18.444Z,-3.22
2018-03-17T12:46:53.931Z,-3.26
2018-03-17T12:49:29.685Z,-3.44
2018-03-17T12:52:06.467Z,-3.36
2018-03-17T12:54:43.743Z,-3.20
2018-03-17T12:57:21.579Z,-3.10
2018-03-17T12:59:55.076Z,-3.16
2018-03-17T13:02:31.642Z,-3.51
2018-03-17T13:05:13.005Z,-3.31
2018-03-17T13:07:47.739Z,-3.21
2018-03-17T13:10:22.244Z,-3.46
2018-03-17T13:13:03.538Z,-3.23
2018-03-17T13:15:36.933Z,-3.03
2018-03-17T13:18:12.973Z,-3.23
2018-03-17T13:20:49.429Z,-3.43
2018-03-17T13:23:25.740Z,-3.20
2018-03-17T13:25:59.174Z,-3.05
2018-03-17T13:28:33.431Z,-3.56
2018-03-17T13:31:08.080Z,-3.30
2018-03-17T13:33:41.624Z,-3.24
2018-03-17T13:38:22.999Z,-3.55
2018-03-17T13:40:57.151Z,-3.27
2018-03-17T13:43:31.452Z,-3.14
2018-03-17T13:46:06.866Z,-3.07
2018-03-17T13:48:42.864Z,-3.31
2018-03-17T13:51:17.271Z,-3.43
2018-03-17T13:53:53.406Z,-3.40
2018-03-17T13:56:27.977Z,-3.34
2018-03-17T13:59:02.070Z,-3.46
2018-03-17T14:01:36.541Z,-3.15
2018-03-17T14:04:12.612Z,-3.42
2018-03-17T14:06:46.723Z,-3.60
2018-03-17T14:09:20.227Z,-3.38
2018-03-17T14:11:53.933Z,-3.72
2018-03-17T14:14:27.153Z,-3.72
2018-03-17T14:17:01.124Z,-3.54
2018-03-17T14:19:36.433Z,-3.78
2018-03-17T14:22:10.688Z,-3.83
2018-03-17T14:24:47.536Z,-3.69
2018-03-17T14:27:21.597Z,-3.62
2018-03-17T14:29:55.077Z,-3.86
2018-03-17T14:32:31.400Z,-3.80
2018-03-17T14:35:07.364Z,-3.98
2018-03-17T14:37:43.043Z,-3.90
2018-03-17T14:40:22.176Z,-3.89
2018-03-17T14:42:58.240Z,-3.87
2018-03-17T14:45:34.191Z,-4.39
2018-03-17T14:48:10.342Z,-3.91
2018-03-17T14:50:46.534Z,-4.00
2018-03-17T14:53:23.416Z,-4.09
2018-03-17T14:55:58.059Z,-3.99
2018-03-17T14:58:32.951Z,-3.86
2018-03-17T15:01:07.661Z,-3.88
2018-03-17T15:03:42.488Z,-3.99
2018-03-17T15:06:17.257Z,-3.85
2018-03-17T15:08:54.325Z,-3.83
2018-03-17T15:11:32.254Z,-3.85
2018-03-17T15:14:09.223Z,-3.72
2018-03-17T15:16:45.753Z,-3.89
2018-03-17T15:19:19.573Z,-4.04
2018-03-17T15:21:52.908Z,-4.00
2018-03-17T15:24:26.804Z,-3.97
2018-03-17T15:27:00.143Z,-4.09
2018-03-17T15:29:33.804Z,-3.98
2018-03-17T15:32:08.043Z,-3.95
2018-03-17T15:34:42.238Z,-4.12
2018-03-17T15:37:15.546Z,-4.26
2018-03-17T15:39:48.830Z,-4.19
2018-03-17T15:42:22.612Z,-3.91
2018-03-17T15:44:57.372Z,-4.04
2018-03-17T15:47:31.482Z,-3.89
2018-03-17T15:50:12.224Z,-3.91
2018-03-17T15:52:46.402Z,-3.92
2018-03-17T15:58:29.663Z,-4.04
2018-03-17T16:01:18.557Z,-4.00
2018-03-17T16:03:53.019Z,-3.95
2018-03-17T16:06:26.474Z,-3.99
2018-03-17T16:08:59.944Z,-4.02
2018-03-17T16:11:34.478Z,-4.11
2018-03-17T16:14:08.104Z,-4.06
2018-03-17T16:16:43.128Z,-4.20
2018-03-17T16:19:38.212Z,-4.10
2018-03-17T16:22:14.148Z,-4.04
2018-03-17T16:24:51.728Z,-4.10
2018-03-17T16:27:25.025Z,-4.00
2018-03-17T16:29:58.572Z,-4.14
2018-03-17T16:32:32.058Z,-4.10
2018-03-17T16:35:15.671Z,-3.94
2018-03-17T16:37:50.769Z,-3.91
2018-03-17T16:40:24.208Z,-4.21
2018-03-17T16:43:00.952Z,-4.27
2018-03-17T16:45:39.935Z,-4.24
2018-03-17T16:48:13.921Z,-4.15
2018-03-17T16:50:48.433Z,-4.10
2018-03-17T16:53:31.787Z,-3.94
2018-03-17T16:56:05.630Z,-3.96
2018-03-17T16:58:39.063Z,-4.05
2018-03-17T17:01:12.379Z,-4.20
2018-03-17T17:06:38.043Z,-4.13
2018-03-17T17:09:13.757Z,-4.07
2018-03-17T17:11:47.404Z,-4.17
2018-03-17T17:14:20.920Z,-4.02
2018-03-17T17:16:56.357Z,-4.09
2018-03-17T17:19:29.374Z,-4.00
2018-03-17T17:22:03.433Z,-4.08
2018-03-17T17:24:47.780Z,-4.05
2018-03-17T17:27:22.461Z,-4.06
2018-03-17T17:29:55.782Z,-4.13
2018-03-17T17:32:29.791Z,-4.07
2018-03-17T17:35:05.869Z,-3.97
2018-03-17T17:37:44.507Z,-4.17
2018-03-17T17:40:20.519Z,-3.99
2018-03-17T17:42:54.639Z,-3.98
2018-03-17T17:45:28.383Z,-4.05
2018-03-17T17:48:02.518Z,-3.88
2018-03-17T17:50:36.379Z,-3.97
2018-03-17T17:55:57.155Z,-4.01
2018-03-17T17:58:31.943Z,-3.95
2018-03-17T18:01:10.763Z,-3.99
2018-03-17T18:03:48.336Z,-3.91
2018-03-17T18:06:21.882Z,-3.97
2018-03-17T18:08:55.771Z,-3.89
2018-03-17T18:11:38.419Z,-4.00
2018-03-17T18:14:18.031Z,-3.81
2018-03-17T18:16:54.328Z,-3.78
2018-03-17T18:19:30.669Z,-4.03
2018-03-17T18:22:18.779Z,-4.00
2018-03-17T18:24:59.382Z,-3.92
2018-03-17T18:27:41.725Z,-3.90
2018-03-17T18:30:17.830Z,-3.96
2018-03-17T18:32:52.106Z,-3.99
2018-03-17T18:35:25.871Z,-3.99
2018-03-17T18:37:59.880Z,-3.85
2018-03-17T18:40:34.797Z,-3.96
2018-03-17T18:43:10.915Z,-3.92
2018-03-17T18:45:47.225Z,-3.87
2018-03-17T18:48:26.244Z,-3.98
2018-03-17T18:51:00.086Z,-3.90
2018-03-17T18:53:34.354Z,-3.89
2018-03-17T18:56:15.599Z,-3.84
2018-03-17T18:58:50.944Z,-3.95
2018-03-17T19:01:36.370Z,-3.91
2018-03-17T19:04:17.439Z,-3.86
2018-03-17T19:06:56.821Z,-3.87
2018-03-17T19:09:31.132Z,-3.80
2018-03-17T19:14:53.990Z,-3.74
2018-03-17T19:20:36.196Z,-3.91
2018-03-17T19:23:09.976Z,-3.84
2018-03-17T19:25:47.495Z,-3.84
2018-03-17T19:31:38.676Z,-3.92
2018-03-17T19:34:16.248Z,-3.84
2018-03-17T19:36:53.460Z,-3.83
2018-03-17T19:39:27.012Z,-3.79
2018-03-17T19:42:09.768Z,-3.81
2018-03-17T19:44:48.820Z,-3.76
2018-03-17T19:47:22.792Z,-3.74
2018-03-17T19:50:02.842Z,-3.97
2018-03-17T19:52:41.175Z,-3.84
2018-03-17T19:55:15.656Z,-3.83
2018-03-17T19:57:51.061Z,-3.87
2018-03-17T20:00:24.696Z,-3.86
2018-03-17T20:02:58.910Z,-3.78
2018-03-17T20:05:45.522Z,-3.73
2018-03-17T20:08:22.768Z,-3.65
2018-03-17T20:10:57.200Z,-3.63
2018-03-17T20:13:32.058Z,-3.84
2018-03-17T20:16:05.737Z,-3.98
2018-03-17T20:18:40.924Z,-3.87
2018-03-17T20:21:15.400Z,-3.79
2018-03-17T20:23:50.955Z,-3.87
2018-03-17T20:26:25.341Z,-3.93
2018-03-17T20:28:59.088Z,-3.82
2018-03-17T20:31:32.575Z,-3.80
2018-03-17T20:34:12.062Z,-3.81
2018-03-17T20:36:47.616Z,-3.84
2018-03-17T20:39:23.808Z,-3.83
2018-03-17T20:42:03.532Z,-3.86
2018-03-17T20:44:36.988Z,-3.84
2018-03-17T20:47:11.214Z,-3.79
2018-03-17T20:49:44.507Z,-3.91
2018-03-17T20:52:23.993Z,-3.89
2018-03-17T20:55:13.949Z,-3.95
2018-03-17T20:57:49.352Z,-3.88
2018-03-17T21:00:32.336Z,-3.98
2018-03-17T21:03:13.941Z,-3.87
2018-03-17T21:05:47.972Z,-3.87
2018-03-17T21:08:22.426Z,-3.83
2018-03-17T21:10:57.122Z,-3.90
2018-03-17T21:13:31.064Z,-3.84
2018-03-17T21:16:05.184Z,-3.95
2018-03-17T21:18:39.556Z,-3.91
2018-03-17T21:21:12.795Z,-3.81
2018-03-17T21:23:48.236Z,-3.79
2018-03-17T21:26:21.296Z,-3.77
2018-03-17T21:28:55.051Z,-3.89
2018-03-17T21:31:28.796Z,-3.96
2018-03-17T21:34:06.915Z,-3.90
2018-03-17T21:36:40.192Z,-3.85
2018-03-17T21:39:16.451Z,-3.80
2018-03-17T21:41:50.563Z,-3.92
2018-03-17T21:44:24.123Z,-3.85
2018-03-17T21:53:45.279Z,-3.73
2018-03-17T21:56:19.154Z,-3.87
2018-03-17T21:58:53.597Z,-3.81
2018-03-17T22:01:27.350Z,-3.88
2018-03-17T22:04:01.496Z,-3.90
2018-03-17T22:06:35.264Z,-3.89
2018-03-17T22:09:15.572Z,-3.88
2018-03-17T22:11:51.570Z,-3.90
2018-03-17T22:14:26.027Z,-3.85
2018-03-17T22:16:59.846Z,-3.87
2018-03-17T22:19:34.301Z,-3.92
2018-03-17T22:22:09.248Z,-3.85
2018-03-17T22:24:42.935Z,-3.90
2018-03-17T22:27:19.462Z,-3.78
2018-03-17T22:30:01.828Z,-3.79
2018-03-17T22:32:36.661Z,-3.97
2018-03-17T22:35:10.610Z,-3.81
2018-03-17T22:40:46.978Z,-4.00
2018-03-17T22:43:22.658Z,-3.99
2018-03-17T22:45:56.928Z,-3.94
2018-03-17T22:48:30.953Z,-4.07
2018-03-17T22:51:06.157Z,-4.16
2018-03-17T22:53:41.815Z,-4.01
2018-03-17T22:56:15.849Z,-4.08
2018-03-17T22:58:49.492Z,-3.93
2018-03-17T23:04:16.348Z,-3.97
2018-03-17T23:07:03.575Z,-3.98
2018-03-17T23:09:39.152Z,-4.04
2018-03-17T23:12:13.223Z,-3.98
2018-03-17T23:14:47.991Z,-4.12
2018-03-17T23:17:27.394Z,-3.88
2018-03-17T23:20:02.349Z,-3.97
2018-03-17T23:22:36.190Z,-3.92
2018-03-17T23:25:11.434Z,-4.05
2018-03-17T23:27:44.934Z,-3.93
2018-03-17T23:30:27.769Z,-4.01
2018-03-17T23:33:07.043Z,-3.93
2018-03-17T23:35:40.672Z,-3.97
2018-03-17T23:38:16.792Z,-3.97
2018-03-17T23:40:54.343Z,-4.06
2018-03-17T23:43:27.726Z,-3.91
2018-03-17T23:46:03.666Z,-3.92
2018-03-17T23:48:39.636Z,-4.03
2018-03-17T23:51:13.194Z,-3.95
2018-03-17T23:53:46.516Z,-3.85
2018-03-17T23:56:26.452Z,-3.93
2018-03-17T23:59:03.291Z,-3.87
